Time;durP1;ratioP1;P1;durP2;ratioP2;P2;SDS_P1;SDS_P2;PMS_P1;PMS_P2;Temp;Humidity;BMP_temperature;BMP_pressure;BME280_temperature;BME280_humidity;BME280_pressure;Samples;Min_cycle;Max_cycle;Signal;HPM_P1;HPM_P2
2022/06/11 00:01:34;;;;;;;10.68;4.93;;;17.60;99.90;;;;;;5085568;28;20052;-70
2022/06/11 00:04:05;;;;;;;9.63;4.55;;;17.60;99.90;;;;;;5083225;28;20072;-70
2022/06/11 00:06:33;;;;;;;9.88;4.45;;;17.60;99.90;;;;;;5092022;28;20089;-70
2022/06/11 00:08:59;;;;;;;8.88;4.75;;;17.50;99.90;;;;;;5089507;28;20040;-70
2022/06/11 00:11:26;;;;;;;7.38;4.35;;;17.50;99.90;;;;;;5086309;28;20135;-69
2022/06/11 00:13:52;;;;;;;10.43;4.30;;;17.50;99.90;;;;;;5092001;28;20406;-69
2022/06/11 00:16:19;;;;;;;8.55;4.85;;;17.30;99.90;;;;;;5091114;28;20371;-70
2022/06/11 00:18:47;;;;;;;9.05;4.40;;;17.40;99.90;;;;;;5087513;28;20409;-70
2022/06/11 00:21:14;;;;;;;8.32;4.95;;;17.30;99.90;;;;;;5088666;28;20421;-71
2022/06/11 00:23:42;;;;;;;10.23;5.00;;;17.30;99.90;;;;;;5089159;28;20110;-70
2022/06/11 00:26:09;;;;;;;8.43;5.45;;;17.20;99.90;;;;;;5090701;28;20040;-70
2022/06/11 00:28:35;;;;;;;10.88;6.28;;;17.10;99.90;;;;;;5084814;28;20123;-70
2022/06/11 00:31:03;;;;;;;13.52;6.60;;;17.10;99.90;;;;;;5090189;28;20378;-69
2022/06/11 00:33:29;;;;;;;16.08;5.97;;;17.00;99.90;;;;;;5088488;28;20054;-70
2022/06/11 00:35:55;;;;;;;18.23;5.32;;;16.90;99.90;;;;;;5089320;28;20062;-70
2022/06/11 00:38:21;;;;;;;13.93;5.70;;;16.90;99.90;;;;;;5079859;28;20044;-69
2022/06/11 00:40:49;;;;;;;11.23;5.97;;;16.80;99.90;;;;;;5088967;28;20036;-69
2022/06/11 00:43:18;;;;;;;13.60;6.20;;;16.90;99.90;;;;;;5089604;28;20100;-69
2022/06/11 00:45:46;;;;;;;10.98;5.53;;;16.70;99.90;;;;;;5079509;28;20074;-70
2022/06/11 00:48:23;;;;;;;10.05;5.70;;;16.70;99.90;;;;;;5089030;28;20063;-70
2022/06/11 00:50:54;;;;;;;12.57;6.00;;;16.60;99.90;;;;;;5090119;28;20419;-69
2022/06/11 00:53:41;;;;;;;10.10;5.93;;;16.60;99.90;;;;;;5090168;28;20044;-70
2022/06/11 00:56:12;;;;;;;9.63;5.30;;;16.60;99.90;;;;;;5084024;28;20032;-70
2022/06/11 00:58:42;;;;;;;12.30;5.75;;;16.60;99.90;;;;;;5087094;28;20043;-70
2022/06/11 01:01:08;;;;;;;16.75;4.97;;;16.50;99.90;;;;;;5083730;28;20155;-71
2022/06/11 01:03:38;;;;;;;12.52;5.38;;;16.50;99.90;;;;;;5086416;28;20048;-68
2022/06/11 01:06:37;;;;;;;12.93;4.38;;;16.50;99.90;;;;;;5092185;28;20047;-69
2022/06/11 01:09:11;;;;;;;11.55;5.10;;;16.40;99.90;;;;;;5088285;28;20046;-69
2022/06/11 01:12:06;;;;;;;10.27;4.38;;;16.40;99.90;;;;;;5087291;28;20127;-70
2022/06/11 01:14:46;;;;;;;12.10;5.03;;;16.30;99.90;;;;;;5089804;28;20054;-70
2022/06/11 01:17:30;;;;;;;15.25;5.38;;;16.30;99.90;;;;;;5086092;28;20043;-70
2022/06/11 01:20:26;;;;;;;9.25;4.65;;;16.20;99.90;;;;;;5096856;28;20131;-70
2022/06/11 01:23:06;;;;;;;12.45;4.18;;;16.20;99.90;;;;;;5083040;28;20517;-70
2022/06/11 01:25:52;;;;;;;13.15;3.90;;;16.10;99.90;;;;;;5088989;28;20447;-70
2022/06/11 01:28:40;;;;;;;14.93;3.85;;;16.10;99.90;;;;;;5083515;28;20626;-70
2022/06/11 01:31:18;;;;;;;14.05;3.97;;;16.00;99.90;;;;;;5085089;28;20118;-70
2022/06/11 01:34:18;;;;;;;9.13;3.10;;;16.00;99.90;;;;;;5093814;28;20425;-71
2022/06/11 01:36:47;;;;;;;14.93;3.70;;;15.90;99.90;;;;;;5087085;28;20605;-71
2022/06/11 01:39:32;;;;;;;15.57;3.95;;;15.80;99.90;;;;;;5092105;28;20090;-70
2022/06/11 01:42:04;;;;;;;11.45;3.47;;;15.80;99.90;;;;;;5087638;28;20043;-70
2022/06/11 01:44:35;;;;;;;16.92;3.42;;;15.80;99.90;;;;;;5091628;28;20048;-70
2022/06/11 01:47:03;;;;;;;11.77;3.25;;;15.80;99.90;;;;;;5084757;28;20430;-70
2022/06/11 01:49:29;;;;;;;;;;;15.70;99.90;;;;;;5084064;28;20040;-70
2022/06/11 01:52:13;;;;;;;9.57;2.85;;;15.70;99.90;;;;;;5090540;28;19924;-69
2022/06/11 01:54:58;;;;;;;10.48;3.10;;;15.70;99.90;;;;;;5098379;28;20043;-71
2022/06/11 01:57:52;;;;;;;17.48;3.55;;;15.70;99.90;;;;;;5084060;28;20405;-71
2022/06/11 02:00:25;;;;;;;11.35;3.40;;;15.60;99.90;;;;;;5092346;28;20052;-71
2022/06/11 02:03:21;;;;;;;25.63;4.07;;;15.60;99.90;;;;;;5105392;28;20062;-69
2022/06/11 02:06:13;;;;;;;12.52;3.28;;;15.50;99.90;;;;;;5093376;28;20134;-69
2022/06/11 02:08:47;;;;;;;11.02;3.40;;;15.50;99.90;;;;;;5091460;28;20055;-69
2022/06/11 02:11:29;;;;;;;8.23;3.15;;;15.50;99.90;;;;;;5091011;28;20044;-70
2022/06/11 02:14:30;;;;;;;13.05;3.10;;;15.40;99.90;;;;;;5082768;28;20123;-70
2022/06/11 02:17:20;;;;;;;13.70;3.15;;;15.40;99.90;;;;;;5075113;28;20054;-70
2022/06/11 02:19:52;;;;;;;10.95;2.97;;;15.30;99.90;;;;;;5091360;28;20507;-70
2022/06/11 02:22:33;;;;;;;14.02;3.53;;;15.30;99.90;;;;;;5081825;28;20040;-70
2022/06/11 02:25:19;;;;;;;12.43;3.00;;;15.20;99.90;;;;;;5087612;28;20032;-69
2022/06/11 02:27:50;;;;;;;11.95;3.30;;;15.20;99.90;;;;;;5090431;28;20051;-69
2022/06/11 02:30:22;;;;;;;12.65;3.28;;;15.20;99.90;;;;;;5091406;28;20044;-70
2022/06/11 02:32:48;;;;;;;8.25;2.58;;;15.20;99.90;;;;;;5085188;28;20089;-69
2022/06/11 02:35:25;;;;;;;14.55;2.85;;;15.10;99.90;;;;;;5088952;28;20052;-70
2022/06/11 02:37:51;;;;;;;13.52;3.47;;;15.10;99.90;;;;;;5086591;28;20123;-71
2022/06/11 02:40:21;;;;;;;16.95;4.15;;;15.10;99.90;;;;;;5077032;28;20116;-71
2022/06/11 02:42:47;;;;;;;19.42;3.80;;;15.10;99.90;;;;;;5093015;28;20123;-69
2022/06/11 02:45:14;;;;;;;8.85;3.42;;;15.10;99.90;;;;;;5092671;28;20051;-70
2022/06/11 02:47:43;;;;;;;10.03;3.27;;;15.10;99.90;;;;;;5084093;28;20048;-70
2022/06/11 02:50:16;;;;;;;13.23;2.80;;;15.00;99.90;;;;;;5090306;28;20145;-70
2022/06/11 02:52:42;;;;;;;14.77;3.30;;;15.00;99.90;;;;;;5089699;28;20379;-70
2022/06/11 02:55:09;;;;;;;12.40;2.97;;;14.90;99.90;;;;;;5091310;28;20047;-70
2022/06/11 02:57:35;;;;;;;9.40;2.75;;;15.00;99.90;;;;;;5078999;28;20039;-70
2022/06/11 03:00:02;;;;;;;13.63;3.17;;;14.90;99.90;;;;;;5085465;28;20032;-70
2022/06/11 03:02:28;;;;;;;14.95;3.65;;;14.90;99.90;;;;;;5091182;28;20048;-70
2022/06/11 03:04:54;;;;;;;14.07;3.00;;;14.90;99.90;;;;;;5090957;28;20055;-70
2022/06/11 03:07:20;;;;;;;12.38;3.00;;;14.90;99.90;;;;;;5091801;28;20048;-70
2022/06/11 03:09:46;;;;;;;11.10;3.13;;;14.90;99.90;;;;;;5087036;28;20132;-70
2022/06/11 03:12:14;;;;;;;13.07;3.53;;;14.90;99.90;;;;;;5090479;28;20096;-69
2022/06/11 03:14:44;;;;;;;10.30;2.90;;;14.90;99.90;;;;;;5088679;28;20131;-70
2022/06/11 03:17:12;;;;;;;10.00;3.30;;;14.90;99.90;;;;;;5086864;28;20101;-69
2022/06/11 03:19:39;;;;;;;18.40;3.75;;;14.80;99.90;;;;;;5090645;28;20043;-70
2022/06/11 03:22:07;;;;;;;12.20;2.95;;;14.80;99.90;;;;;;5090788;28;20040;-70
2022/06/11 03:24:32;;;;;;;12.03;3.07;;;14.80;99.90;;;;;;5083234;28;20044;-70
2022/06/11 03:26:58;;;;;;;14.50;3.38;;;14.70;99.90;;;;;;5092345;28;20535;-69
2022/06/11 03:29:25;;;;;;;11.73;3.00;;;14.70;99.90;;;;;;5093473;28;20048;-69
2022/06/11 03:31:51;;;;;;;14.23;3.35;;;14.70;99.90;;;;;;5084163;28;20079;-69
2022/06/11 03:34:17;;;;;;;14.38;3.08;;;14.70;99.90;;;;;;5092993;28;20114;-70
2022/06/11 03:36:43;;;;;;;12.60;3.65;;;14.70;99.90;;;;;;5088073;28;20544;-70
2022/06/11 03:39:11;;;;;;;11.60;3.20;;;14.70;99.90;;;;;;5083701;28;20406;-70
2022/06/11 03:41:37;;;;;;;15.65;3.75;;;14.70;99.90;;;;;;5088749;28;20047;-70
2022/06/11 03:44:03;;;;;;;11.60;3.30;;;14.70;99.90;;;;;;5087648;28;20414;-70
2022/06/11 03:46:29;;;;;;;14.38;3.33;;;14.70;99.90;;;;;;5090008;28;20400;-71
2022/06/11 03:48:56;;;;;;;9.15;2.88;;;14.70;99.90;;;;;;5097833;28;20566;-70
2022/06/11 03:51:22;;;;;;;11.98;3.83;;;14.70;99.90;;;;;;5093809;28;20071;-69
2022/06/11 03:53:48;;;;;;;9.63;3.20;;;14.70;99.90;;;;;;5089101;28;20085;-69
2022/06/11 03:56:15;;;;;;;13.55;3.42;;;14.70;99.90;;;;;;5091018;28;20044;-70
2022/06/11 03:58:43;;;;;;;12.50;3.70;;;14.60;99.90;;;;;;5106029;28;20494;-69
2022/06/11 04:01:15;;;;;;;;;;;14.70;99.90;;;;;;5087962;28;20059;-70
2022/06/11 04:03:51;;;;;;;15.15;4.00;;;14.60;99.90;;;;;;5089178;28;20003;-70
2022/06/11 04:06:23;;;;;;;14.13;4.20;;;14.60;99.90;;;;;;5084851;28;20036;-70
2022/06/11 04:08:49;;;;;;;11.48;3.88;;;14.70;99.90;;;;;;5089380;28;20051;-69
2022/06/11 04:11:16;;;;;;;11.65;3.53;;;14.60;99.90;;;;;;5090962;28;20040;-69
2022/06/11 04:13:44;;;;;;;11.98;3.95;;;14.60;99.90;;;;;;5087233;28;20040;-70
2022/06/11 04:16:18;;;;;;;;;;;14.70;99.90;;;;;;5089714;28;20078;-69
2022/06/11 04:18:44;;;;;;;16.15;4.40;;;14.60;99.90;;;;;;5085367;28;19919;-70
2022/06/11 04:21:12;;;;;;;9.63;3.38;;;14.70;99.90;;;;;;5090404;28;20039;-69
2022/06/11 04:23:39;;;;;;;14.52;3.88;;;14.70;99.90;;;;;;5090324;28;20044;-69
2022/06/11 04:26:08;;;;;;;16.73;3.72;;;14.70;99.90;;;;;;5088753;28;20044;-70
2022/06/11 04:28:35;;;;;;;19.50;4.28;;;14.70;99.90;;;;;;5072786;28;20044;-70
2022/06/11 04:31:04;;;;;;;13.77;3.73;;;14.80;99.90;;;;;;5087321;28;20040;-69
2022/06/11 04:33:31;;;;;;;14.20;3.65;;;14.70;99.90;;;;;;5083453;28;20034;-69
2022/06/11 04:35:56;;;;;;;13.32;3.92;;;14.80;99.90;;;;;;5088715;28;20414;-69
2022/06/11 04:38:23;;;;;;;16.13;4.03;;;14.80;99.90;;;;;;5089527;28;20512;-69
2022/06/11 04:40:49;;;;;;;17.67;3.45;;;14.90;99.90;;;;;;5086822;28;20040;-69
2022/06/11 04:43:15;;;;;;;15.63;4.22;;;14.90;99.90;;;;;;5089787;28;20040;-69
2022/06/11 04:45:41;;;;;;;12.93;3.78;;;14.90;99.90;;;;;;5090329;28;20043;-70
2022/06/11 04:48:07;;;;;;;16.75;4.00;;;14.90;99.90;;;;;;5087163;28;20036;-70
2022/06/11 04:50:34;;;;;;;21.13;4.30;;;15.00;99.90;;;;;;5083085;28;20048;-70
2022/06/11 04:53:00;;;;;;;14.07;3.30;;;15.00;99.90;;;;;;5087725;28;20044;-69
2022/06/11 04:55:26;;;;;;;10.52;3.47;;;15.00;99.90;;;;;;5087205;28;20052;-70
2022/06/11 04:57:52;;;;;;;15.85;3.58;;;15.10;99.90;;;;;;5088308;28;20036;-70
2022/06/11 05:00:21;;;;;;;14.57;3.65;;;15.20;99.90;;;;;;5088946;28;20028;-70
2022/06/11 05:02:49;;;;;;;18.05;4.63;;;15.20;99.90;;;;;;5089536;28;20078;-68
2022/06/11 05:05:16;;;;;;;17.00;3.90;;;15.30;99.90;;;;;;5090258;28;20098;-70
2022/06/11 05:07:43;;;;;;;20.60;4.50;;;15.30;99.90;;;;;;5089120;28;20102;-66
2022/06/11 05:10:10;;;;;;;17.15;4.40;;;15.30;99.90;;;;;;5086235;28;20035;-68
2022/06/11 05:12:36;;;;;;;18.25;4.18;;;15.40;99.90;;;;;;5089468;28;20505;-69
2022/06/11 05:15:03;;;;;;;21.73;4.93;;;15.50;99.90;;;;;;5086546;28;20040;-70
2022/06/11 05:17:29;;;;;;;18.95;4.60;;;15.50;99.90;;;;;;5090355;28;20088;-67
2022/06/11 05:19:55;;;;;;;15.40;4.18;;;15.60;99.90;;;;;;5089599;28;20044;-68
2022/06/11 05:22:20;;;;;;;15.20;4.10;;;15.60;99.90;;;;;;5090531;28;20085;-69
2022/06/11 05:24:46;;;;;;;19.92;4.18;;;15.70;99.90;;;;;;5088485;28;20402;-69
2022/06/11 05:27:15;;;;;;;21.15;4.20;;;15.60;99.90;;;;;;5088113;28;20083;-69
2022/06/11 05:29:53;;;;;;;22.60;4.57;;;15.80;99.90;;;;;;5089780;28;20123;-68
2022/06/11 05:32:20;;;;;;;20.95;4.50;;;15.90;99.90;;;;;;5091989;28;20040;-69
2022/06/11 05:34:49;;;;;;;24.33;5.35;;;16.00;99.90;;;;;;5108403;28;20047;-70
2022/06/11 05:37:16;;;;;;;17.38;4.30;;;16.00;99.90;;;;;;5098489;28;20456;-71
2022/06/11 05:39:43;;;;;;;19.40;4.30;;;16.10;99.90;;;;;;5076938;28;20413;-69
2022/06/11 05:42:10;;;;;;;23.42;5.40;;;16.00;99.90;;;;;;5083266;28;20036;-69
2022/06/11 05:44:36;;;;;;;20.10;4.75;;;16.10;99.90;;;;;;5082948;28;20409;-69
2022/06/11 05:47:02;;;;;;;22.85;4.60;;;16.10;99.90;;;;;;5082850;28;20066;-70
2022/06/11 05:49:33;;;;;;;28.48;4.88;;;16.20;99.90;;;;;;5089200;28;20046;-70
2022/06/11 05:52:01;;;;;;;19.20;4.55;;;16.30;99.90;;;;;;5084231;28;20501;-68
2022/06/11 05:54:31;;;;;;;23.33;5.47;;;16.40;99.90;;;;;;5087809;28;20051;-68
2022/06/11 05:56:57;;;;;;;28.02;5.55;;;16.40;99.90;;;;;;5093623;28;20036;-70
2022/06/11 05:59:27;;;;;;;20.90;4.70;;;16.50;99.90;;;;;;5089159;28;20067;-68
2022/06/11 06:01:54;;;;;;;20.42;5.65;;;16.50;99.90;;;;;;5088300;28;20074;-69
2022/06/11 06:04:20;;;;;;;24.63;5.03;;;16.50;99.90;;;;;;5093299;28;20524;-68
2022/06/11 06:06:46;;;;;;;21.30;5.43;;;16.60;99.90;;;;;;5084777;28;20040;-69
2022/06/11 06:09:11;;;;;;;30.40;6.57;;;16.70;99.90;;;;;;5083908;28;20028;-69
2022/06/11 06:11:37;;;;;;;27.27;5.10;;;16.90;99.90;;;;;;5084384;28;20038;-70
2022/06/11 06:14:03;;;;;;;24.75;4.97;;;17.20;99.90;;;;;;5091040;28;20040;-70
2022/06/11 06:16:30;;;;;;;24.73;5.85;;;17.60;99.90;;;;;;5093092;28;20054;-68
2022/06/11 06:18:57;;;;;;;25.60;5.45;;;17.90;99.90;;;;;;5090436;28;20509;-70
2022/06/11 06:21:25;;;;;;;28.95;6.15;;;17.90;99.90;;;;;;5092620;28;20039;-69
2022/06/11 06:23:51;;;;;;;23.05;5.38;;;17.80;99.90;;;;;;5090321;28;20415;-70
2022/06/11 06:26:18;;;;;;;22.25;5.18;;;17.80;99.90;;;;;;5091046;28;20036;-69
2022/06/11 06:28:44;;;;;;;22.60;4.68;;;17.80;99.90;;;;;;5091550;28;20036;-68
2022/06/11 06:31:12;;;;;;;23.10;5.63;;;17.80;99.90;;;;;;5107227;28;20389;-67
2022/06/11 06:33:38;;;;;;;22.73;4.95;;;17.80;99.90;;;;;;5091860;28;20413;-70
2022/06/11 06:36:06;;;;;;;27.20;6.05;;;17.90;99.90;;;;;;5092372;28;20043;-68
2022/06/11 06:38:32;;;;;;;24.20;5.68;;;17.90;99.90;;;;;;5106677;28;20044;-68
2022/06/11 06:40:58;;;;;;;27.95;5.80;;;18.00;99.90;;;;;;5091188;28;20051;-70
2022/06/11 06:43:24;;;;;;;25.42;5.53;;;18.00;99.90;;;;;;5090012;28;20417;-69
2022/06/11 06:45:50;;;;;;;22.58;5.40;;;18.10;99.90;;;;;;5085399;28;20045;-69
2022/06/11 06:48:16;;;;;;;22.48;6.32;;;18.20;99.90;;;;;;5086542;28;20036;-71
2022/06/11 06:50:42;;;;;;;29.63;5.72;;;18.30;99.90;;;;;;5090210;28;20032;-69
2022/06/11 06:53:08;;;;;;;33.33;5.60;;;18.40;99.90;;;;;;5089784;28;20039;-70
2022/06/11 06:55:34;;;;;;;23.90;5.85;;;18.50;99.90;;;;;;5090198;28;20118;-69
2022/06/11 06:58:00;;;;;;;27.88;5.43;;;18.50;99.90;;;;;;5090857;28;20036;-67
2022/06/11 07:00:25;;;;;;;25.88;5.45;;;18.60;99.90;;;;;;5098649;28;20401;-69
2022/06/11 07:02:55;;;;;;;29.90;5.85;;;18.60;99.90;;;;;;5107783;28;20047;-69
2022/06/11 07:05:22;;;;;;;27.50;5.47;;;18.70;99.90;;;;;;5106763;28;20119;-68
2022/06/11 07:07:48;;;;;;;27.47;5.57;;;18.80;99.90;;;;;;5091775;28;20042;-70
2022/06/11 07:10:16;;;;;;;22.40;5.18;;;18.90;99.90;;;;;;5087842;28;20033;-68
2022/06/11 07:12:42;;;;;;;28.08;5.70;;;19.00;99.90;;;;;;5090478;28;20036;-68
2022/06/11 07:15:08;;;;;;;26.35;5.88;;;19.10;99.90;;;;;;5082408;28;20048;-69
2022/06/11 07:17:40;;;;;;;26.25;5.80;;;19.10;99.90;;;;;;5089983;28;20080;-69
2022/06/11 07:20:18;;;;;;;26.52;6.63;;;19.00;99.90;;;;;;5085411;28;20514;-71
2022/06/11 07:22:53;;;;;;;25.25;6.35;;;19.00;99.90;;;;;;5091870;28;20035;-69
2022/06/11 07:25:19;;;;;;;22.33;5.38;;;18.90;99.90;;;;;;5087931;28;20093;-70
2022/06/11 07:27:49;;;;;;;23.40;5.90;;;19.00;99.90;;;;;;5092164;28;20048;-70
2022/06/11 07:30:19;;;;;;;23.88;5.10;;;19.10;99.90;;;;;;5074900;28;20044;-69
2022/06/11 07:32:50;;;;;;;25.25;5.35;;;19.30;99.90;;;;;;5089778;28;20048;-70
2022/06/11 07:35:16;;;;;;;21.58;5.40;;;19.40;99.90;;;;;;5087364;28;20040;-70
2022/06/11 07:37:44;;;;;;;24.05;5.93;;;19.50;99.90;;;;;;5086415;28;20098;-70
2022/06/11 07:40:11;;;;;;;30.75;6.50;;;19.60;99.90;;;;;;5083940;28;20500;-69
2022/06/11 07:42:37;;;;;;;29.33;6.25;;;19.70;99.90;;;;;;5090554;28;20501;-70
2022/06/11 07:45:04;;;;;;;33.20;6.53;;;19.60;99.90;;;;;;5091967;28;20036;-72
2022/06/11 07:50:14;;;;;;;31.25;5.97;;;19.60;99.90;;;;;;5076596;28;20054;-71
2022/06/11 07:52:41;;;;;;;25.60;5.57;;;19.60;99.90;;;;;;5091180;28;20032;-69
2022/06/11 07:55:08;;;;;;;25.50;5.37;;;19.60;99.90;;;;;;5088885;28;20481;-72
2022/06/11 07:57:33;;;;;;;19.53;4.83;;;19.60;99.90;;;;;;5086199;28;20372;-72
2022/06/11 07:59:59;;;;;;;27.02;4.80;;;19.60;99.90;;;;;;5090606;28;20466;-68
2022/06/11 08:02:25;;;;;;;26.13;5.30;;;19.70;99.90;;;;;;5086140;28;20380;-71
2022/06/11 08:04:51;;;;;;;24.33;4.93;;;19.70;99.90;;;;;;5087434;28;20052;-71
2022/06/11 08:07:17;;;;;;;22.67;5.13;;;19.60;99.90;;;;;;5103315;28;20039;-71
2022/06/11 08:09:43;;;;;;;23.02;4.78;;;19.60;99.90;;;;;;5090911;28;20516;-72
2022/06/11 08:12:09;;;;;;;21.35;5.22;;;19.70;99.90;;;;;;5090010;28;20040;-71
2022/06/11 08:14:35;;;;;;;26.23;5.78;;;19.80;99.90;;;;;;5089665;28;20044;-72
2022/06/11 08:17:00;;;;;;;23.75;5.32;;;20.00;99.90;;;;;;5092431;28;20044;-71
2022/06/11 08:19:26;;;;;;;22.70;4.68;;;20.30;99.90;;;;;;5077810;28;20055;-70
2022/06/11 08:21:53;;;;;;;20.38;4.13;;;20.40;99.90;;;;;;5085976;28;20501;-71
2022/06/11 08:24:19;;;;;;;22.10;4.22;;;20.50;99.90;;;;;;5071769;28;20278;-71
2022/06/11 08:26:54;;;;;;;29.50;5.45;;;20.60;99.90;;;;;;5089741;28;20130;-71
2022/06/11 08:29:22;;;;;;;24.48;5.40;;;20.60;99.90;;;;;;5104592;28;20044;-71
2022/06/11 08:31:48;;;;;;;20.67;4.45;;;20.70;99.90;;;;;;5086003;28;20032;-69
2022/06/11 08:34:13;;;;;;;26.60;5.03;;;20.80;99.90;;;;;;5087076;28;20027;-71
2022/06/11 08:36:39;;;;;;;25.65;5.38;;;20.80;99.90;;;;;;5078041;28;20125;-70
2022/06/11 08:39:05;;;;;;;28.50;5.15;;;21.00;99.90;;;;;;5090107;28;20139;-69
2022/06/11 08:41:35;;;;;;;25.08;5.43;;;21.10;99.90;;;;;;5090435;28;20036;-70
2022/06/11 08:44:11;;;;;;;22.52;4.85;;;21.20;99.90;;;;;;5078938;28;20051;-70
2022/06/11 08:46:40;;;;;;;25.35;4.82;;;21.30;99.90;;;;;;5073486;28;20051;-70
2022/06/11 08:49:08;;;;;;;25.77;5.18;;;21.30;99.90;;;;;;5089777;28;20044;-67
2022/06/11 08:51:49;;;;;;;23.58;5.97;;;21.10;99.90;;;;;;5090086;28;20094;-69
2022/06/11 08:54:23;;;;;;;17.10;5.18;;;20.90;99.90;;;;;;5084270;28;20539;-71
2022/06/11 08:57:06;;;;;;;29.13;4.63;;;20.70;99.90;;;;;;5088956;28;20093;-68
2022/06/11 08:59:50;;;;;;;27.27;5.38;;;20.80;99.90;;;;;;5101425;28;20529;-71
2022/06/11 09:02:44;;;;;;;18.38;4.57;;;20.90;99.90;;;;;;5074787;28;20151;-70
2022/06/11 09:05:28;;;;;;;23.13;4.50;;;21.00;99.90;;;;;;5072078;28;20052;-71
2022/06/11 09:08:08;;;;;;;31.05;5.95;;;21.10;99.90;;;;;;5083365;28;20048;-71
2022/06/11 09:11:04;;;;;;;18.83;4.28;;;21.30;99.90;;;;;;5087256;28;20145;-71
2022/06/11 09:13:48;;;;;;;19.70;4.68;;;21.40;99.90;;;;;;5085645;28;20083;-70
2022/06/11 09:16:48;;;;;;;18.90;4.38;;;21.50;99.90;;;;;;5082537;28;20067;-68
2022/06/11 09:19:25;;;;;;;17.00;4.55;;;21.70;99.90;;;;;;5090391;28;20084;-69
2022/06/11 09:22:58;;;;;;;21.10;4.20;;;21.80;99.90;;;;;;5086680;28;20044;-70
2022/06/11 09:25:55;;;;;;;15.00;4.20;;;21.80;99.90;;;;;;5080153;28;20052;-68
2022/06/11 09:28:44;;;;;;;20.40;4.50;;;21.80;99.30;;;;;;5063707;28;20639;-70
2022/06/11 09:31:15;;;;;;;17.85;3.65;;;21.70;99.50;;;;;;5081822;28;20052;-69
2022/06/11 09:34:13;;;;;;;17.30;3.58;;;21.60;99.90;;;;;;5077327;28;20113;-70
2022/06/11 09:37:15;;;;;;;13.27;3.13;;;21.70;99.90;;;;;;5056981;28;20055;-70
2022/06/11 09:39:47;;;;;;;13.73;3.95;;;21.80;99.80;;;;;;5079699;28;20060;-69
2022/06/11 09:42:30;;;;;;;18.85;4.15;;;21.90;99.90;;;;;;5090638;28;20067;-69
2022/06/11 09:45:02;;;;;;;14.10;3.33;;;22.00;98.80;;;;;;5086767;28;20036;-71
2022/06/11 09:47:35;;;;;;;18.70;3.90;;;22.00;99.20;;;;;;5089658;28;20512;-69
2022/06/11 09:50:04;;;;;;;19.58;4.03;;;22.10;99.90;;;;;;5087201;28;20182;-70
2022/06/11 09:52:43;;;;;;;17.52;4.10;;;22.10;99.90;;;;;;5084178;28;20044;-72
2022/06/11 09:55:27;;;;;;;14.32;3.28;;;22.30;99.60;;;;;;5103392;28;20077;-72
2022/06/11 09:58:38;;;;;;;14.07;3.95;;;22.30;97.90;;;;;;5086732;28;20149;-71
2022/06/11 10:01:10;;;;;;;15.00;3.20;;;22.40;97.00;;;;;;5082976;28;20048;-70
2022/06/11 10:03:36;;;;;;;13.70;3.30;;;22.30;94.90;;;;;;5087925;28;20052;-70
2022/06/11 10:06:08;;;;;;;11.40;2.90;;;22.20;96.20;;;;;;5084433;28;20107;-71
2022/06/11 10:08:56;;;;;;;13.80;3.45;;;22.30;97.10;;;;;;5090347;28;20056;-70
2022/06/11 10:11:41;;;;;;;14.32;3.80;;;22.50;96.20;;;;;;5087303;28;20047;-68
2022/06/11 10:14:30;;;;;;;13.70;3.17;;;22.70;94.80;;;;;;5088748;28;20135;-70
2022/06/11 10:17:34;;;;;;;14.90;3.42;;;22.90;95.80;;;;;;5079096;28;20487;-70
2022/06/11 10:20:12;;;;;;;16.67;3.47;;;23.00;95.10;;;;;;5090131;28;20130;-68
2022/06/11 10:22:53;;;;;;;16.63;3.50;;;23.10;93.20;;;;;;5089577;28;20079;-71
2022/06/11 10:25:36;;;;;;;15.10;3.15;;;23.20;94.80;;;;;;5088384;28;20052;-71
2022/06/11 10:28:31;;;;;;;13.95;3.58;;;23.20;94.20;;;;;;5092289;28;20058;-69
2022/06/11 10:31:00;;;;;;;15.48;3.75;;;23.20;93.50;;;;;;5077220;28;20514;-70
2022/06/11 10:33:38;;;;;;;13.40;3.17;;;23.30;94.30;;;;;;5087162;28;20040;-70
2022/06/11 10:36:14;;;;;;;21.70;4.70;;;23.40;92.00;;;;;;5085935;28;20513;-73
2022/06/11 10:38:40;;;;;;;15.98;3.97;;;23.20;92.60;;;;;;5088901;28;20040;-71
2022/06/11 10:41:09;;;;;;;15.35;3.30;;;23.10;93.30;;;;;;5092766;28;20062;-70
2022/06/11 10:43:41;;;;;;;14.20;3.72;;;23.00;93.60;;;;;;5089317;28;20044;-70
2022/06/11 10:46:11;;;;;;;22.50;3.83;;;22.80;94.30;;;;;;5085594;28;20119;-71
2022/06/11 10:48:38;;;;;;;16.77;3.08;;;22.80;94.40;;;;;;5086580;28;20040;-70
2022/06/11 10:51:30;;;;;;;17.30;3.55;;;23.00;95.00;;;;;;5083157;28;20036;-68
2022/06/11 10:54:06;;;;;;;12.77;3.35;;;23.40;96.20;;;;;;5083988;28;20072;-70
2022/06/11 10:56:47;;;;;;;21.17;4.10;;;23.60;91.90;;;;;;5086157;28;20044;-68
2022/06/11 10:59:25;;;;;;;20.23;3.70;;;23.90;93.50;;;;;;5090213;28;20044;-69
2022/06/11 11:02:16;;;;;;;19.92;4.13;;;24.00;90.40;;;;;;5091117;28;20532;-68
2022/06/11 11:04:56;;;;;;;12.68;2.88;;;23.80;90.40;;;;;;5085644;28;20091;-67
2022/06/11 11:07:24;;;;;;;13.82;3.28;;;23.90;87.10;;;;;;5087486;28;20525;-71
2022/06/11 11:09:50;;;;;;;13.50;3.55;;;24.00;88.20;;;;;;5091675;28;20097;-69
2022/06/11 11:12:35;;;;;;;12.27;4.47;;;24.00;88.80;;;;;;5092208;28;20036;-70
2022/06/11 11:15:24;;;;;;;18.92;4.22;;;23.90;88.90;;;;;;5077725;28;20067;-70
2022/06/11 11:17:52;;;;;;;;;;;24.00;90.50;;;;;;5083584;28;20102;-70
2022/06/11 11:20:30;;;;;;;16.17;4.70;;;24.20;89.20;;;;;;5081138;28;19935;-70
2022/06/11 11:23:02;;;;;;;11.57;3.17;;;24.60;90.00;;;;;;5088927;28;20498;-68
2022/06/11 11:25:45;;;;;;;15.18;4.20;;;24.70;82.40;;;;;;5087139;28;20047;-68
2022/06/11 11:28:20;;;;;;;15.00;3.10;;;24.60;85.10;;;;;;5084964;28;20101;-71
2022/06/11 11:30:54;;;;;;;15.07;3.60;;;24.60;85.30;;;;;;5081402;28;20076;-70
2022/06/11 11:33:30;;;;;;;19.88;3.63;;;24.70;87.70;;;;;;5080310;28;20082;-69
2022/06/11 11:36:10;;;;;;;12.02;3.05;;;25.10;88.50;;;;;;5092124;28;20381;-70
2022/06/11 11:38:35;;;;;;;16.45;4.05;;;25.20;86.50;;;;;;5081655;28;20127;-69
2022/06/11 11:41:02;;;;;;;13.57;3.17;;;25.30;86.50;;;;;;5092236;28;20114;-71
2022/06/11 11:43:42;;;;;;;12.98;2.97;;;25.40;84.70;;;;;;5088693;28;20040;-70
2022/06/11 11:46:22;;;;;;;13.55;3.28;;;25.20;85.70;;;;;;5090164;28;20076;-70
2022/06/11 11:48:52;;;;;;;9.25;2.65;;;25.00;79.30;;;;;;5070461;28;20074;-67
2022/06/11 11:51:35;;;;;;;13.50;3.55;;;24.60;80.00;;;;;;5086953;28;20118;-69
2022/06/11 11:54:14;;;;;;;17.90;3.65;;;24.60;84.80;;;;;;5082238;28;20092;-69
2022/06/11 11:56:44;;;;;;;11.70;3.38;;;24.70;80.00;;;;;;5083898;28;20044;-70
2022/06/11 11:59:23;;;;;;;15.95;3.28;;;24.70;83.60;;;;;;5088796;28;20096;-70
2022/06/11 12:01:51;;;;;;;12.90;3.17;;;24.50;80.80;;;;;;5082142;28;20044;-69
2022/06/11 12:04:24;;;;;;;19.58;3.28;;;24.30;83.40;;;;;;5089472;28;20036;-67
2022/06/11 12:06:54;;;;;;;16.90;3.50;;;24.00;79.90;;;;;;5086482;28;20044;-68
2022/06/11 12:09:37;;;;;;;11.73;3.05;;;23.80;80.80;;;;;;5091565;28;20047;-69
2022/06/11 12:12:09;;;;;;;12.52;3.50;;;23.90;84.60;;;;;;5075155;28;20044;-68
2022/06/11 12:14:48;;;;;;;16.05;3.05;;;24.10;86.60;;;;;;5080275;28;20048;-70
2022/06/11 12:17:44;;;;;;;14.70;3.33;;;24.20;81.60;;;;;;5073529;28;20128;-68
2022/06/11 12:20:52;;;;;;;9.93;3.42;;;24.20;83.70;;;;;;5086865;28;20440;-69
2022/06/11 12:23:41;;;;;;;17.95;2.95;;;24.40;85.80;;;;;;5042334;28;20044;-66
2022/06/11 12:26:37;;;;;;;15.20;3.85;;;24.70;83.90;;;;;;5048780;28;20037;-68
2022/06/11 12:29:21;;;;;;;11.95;3.72;;;25.00;83.30;;;;;;5048547;28;20044;-66
2022/06/11 12:31:47;;;;;;;13.82;3.00;;;25.00;76.40;;;;;;5084631;28;20131;-69
2022/06/11 12:34:16;;;;;;;13.90;2.67;;;24.90;78.70;;;;;;5090432;28;20047;-69
2022/06/11 12:36:55;;;;;;;14.57;3.38;;;24.80;80.60;;;;;;5091172;28;20044;-68
2022/06/11 12:39:40;;;;;;;9.52;3.03;;;24.60;74.50;;;;;;5078993;28;20062;-67
2022/06/11 12:42:20;;;;;;;17.38;3.22;;;24.20;74.30;;;;;;5089195;28;20043;-69
2022/06/11 12:44:56;;;;;;;15.65;3.65;;;24.20;77.50;;;;;;5071793;28;20045;-68
2022/06/11 12:47:52;;;;;;;13.85;2.60;;;24.30;80.40;;;;;;5081025;28;20058;-68
2022/06/11 12:50:41;;;;;;;9.48;2.78;;;24.50;77.60;;;;;;5079507;28;20048;-68
2022/06/11 12:53:31;;;;;;;20.33;3.20;;;24.50;74.80;;;;;;5075650;28;20054;-69
2022/06/11 12:56:06;;;;;;;10.40;3.08;;;24.60;80.40;;;;;;5077620;28;20045;-69
2022/06/11 12:58:52;;;;;;;9.38;2.70;;;24.90;80.60;;;;;;5086224;28;20051;-68
2022/06/11 13:01:42;;;;;;;19.85;3.63;;;25.10;78.70;;;;;;5086329;28;20087;-69
2022/06/11 13:04:28;;;;;;;19.60;3.65;;;25.40;80.50;;;;;;5084310;28;20048;-69
2022/06/11 13:07:14;;;;;;;10.65;2.40;;;25.70;77.20;;;;;;5085985;28;20091;-67
2022/06/11 13:10:18;;;;;;;12.52;2.92;;;25.70;76.40;;;;;;5076239;28;20056;-69
2022/06/11 13:13:12;;;;;;;14.65;3.25;;;25.80;74.70;;;;;;5084435;28;20635;-69